sensor_id;sensor_type;location;lat;lon;timestamp;P1;durP1;ratioP1;P2;durP2;ratioP2
21215;SDS011;10765;50.954;5.322;2023-07-31T00:00:51;12.07;;;4.80;;
21215;SDS011;10765;50.954;5.322;2023-07-31T00:03:18;8.17;;;4.30;;
21215;SDS011;10765;50.954;5.322;2023-07-31T00:05:46;9.47;;;4.63;;
21215;SDS011;10765;50.954;5.322;2023-07-31T00:08:13;9.27;;;4.77;;
21215;SDS011;10765;50.954;5.322;2023-07-31T00:10:40;10.67;;;5.03;;
21215;SDS011;10765;50.954;5.322;2023-07-31T00:13:07;9.53;;;4.80;;
21215;SDS011;10765;50.954;5.322;2023-07-31T00:15:34;10.77;;;5.30;;
21215;SDS011;10765;50.954;5.322;2023-07-31T00:18:00;9.20;;;4.50;;
21215;SDS011;10765;50.954;5.322;2023-07-31T00:20:27;11.00;;;5.00;;
21215;SDS011;10765;50.954;5.322;2023-07-31T00:22:56;10.90;;;5.03;;
21215;SDS011;10765;50.954;5.322;2023-07-31T00:25:22;11.67;;;4.90;;
21215;SDS011;10765;50.954;5.322;2023-07-31T00:27:49;12.60;;;5.23;;
21215;SDS011;10765;50.954;5.322;2023-07-31T00:30:16;11.20;;;5.07;;
21215;SDS011;10765;50.954;5.322;2023-07-31T00:32:43;11.93;;;5.13;;
21215;SDS011;10765;50.954;5.322;2023-07-31T00:35:10;11.83;;;4.70;;
21215;SDS011;10765;50.954;5.322;2023-07-31T00:37:37;13.03;;;5.20;;
21215;SDS011;10765;50.954;5.322;2023-07-31T00:40:06;9.87;;;4.80;;
21215;SDS011;10765;50.954;5.322;2023-07-31T00:42:34;11.27;;;5.47;;
21215;SDS011;10765;50.954;5.322;2023-07-31T00:45:00;13.67;;;5.17;;
21215;SDS011;10765;50.954;5.322;2023-07-31T00:47:27;11.80;;;5.70;;
21215;SDS011;10765;50.954;5.322;2023-07-31T00:49:54;14.30;;;4.80;;
21215;SDS011;10765;50.954;5.322;2023-07-31T00:52:21;12.43;;;4.80;;
21215;SDS011;10765;50.954;5.322;2023-07-31T00:54:48;13.10;;;5.30;;
21215;SDS011;10765;50.954;5.322;2023-07-31T00:57:17;11.57;;;4.80;;
21215;SDS011;10765;50.954;5.322;2023-07-31T00:59:44;13.03;;;5.40;;
21215;SDS011;10765;50.954;5.322;2023-07-31T01:02:12;11.53;;;5.30;;
21215;SDS011;10765;50.954;5.322;2023-07-31T01:04:38;11.53;;;5.53;;
21215;SDS011;10765;50.954;5.322;2023-07-31T01:07:10;12.27;;;5.73;;
21215;SDS011;10765;50.954;5.322;2023-07-31T01:09:40;13.97;;;5.30;;
21215;SDS011;10765;50.954;5.322;2023-07-31T01:12:13;12.60;;;5.40;;
21215;SDS011;10765;50.954;5.322;2023-07-31T01:14:51;11.07;;;5.20;;
21215;SDS011;10765;50.954;5.322;2023-07-31T01:17:27;8.60;;;4.60;;
21215;SDS011;10765;50.954;5.322;2023-07-31T01:19:55;11.23;;;4.73;;
21215;SDS011;10765;50.954;5.322;2023-07-31T01:22:30;10.47;;;5.27;;
21215;SDS011;10765;50.954;5.322;2023-07-31T01:25:16;9.70;;;5.10;;
21215;SDS011;10765;50.954;5.322;2023-07-31T01:27:57;8.13;;;4.60;;
21215;SDS011;10765;50.954;5.322;2023-07-31T01:30:27;9.73;;;5.53;;
21215;SDS011;10765;50.954;5.322;2023-07-31T01:32:58;10.73;;;5.80;;
21215;SDS011;10765;50.954;5.322;2023-07-31T01:35:34;9.67;;;5.33;;
21215;SDS011;10765;50.954;5.322;2023-07-31T01:38:01;11.37;;;5.37;;
21215;SDS011;10765;50.954;5.322;2023-07-31T01:40:28;9.93;;;5.33;;
21215;SDS011;10765;50.954;5.322;2023-07-31T01:42:57;13.47;;;4.80;;
21215;SDS011;10765;50.954;5.322;2023-07-31T01:45:24;8.53;;;5.07;;
21215;SDS011;10765;50.954;5.322;2023-07-31T01:47:50;9.37;;;4.90;;
21215;SDS011;10765;50.954;5.322;2023-07-31T01:50:17;9.63;;;4.80;;
21215;SDS011;10765;50.954;5.322;2023-07-31T01:52:44;9.03;;;5.17;;
21215;SDS011;10765;50.954;5.322;2023-07-31T01:55:11;9.37;;;5.20;;
21215;SDS011;10765;50.954;5.322;2023-07-31T01:57:38;10.30;;;5.07;;
21215;SDS011;10765;50.954;5.322;2023-07-31T02:00:07;10.63;;;5.20;;
21215;SDS011;10765;50.954;5.322;2023-07-31T02:02:34;12.30;;;5.47;;
21215;SDS011;10765;50.954;5.322;2023-07-31T02:05:01;10.30;;;5.30;;
21215;SDS011;10765;50.954;5.322;2023-07-31T02:07:28;9.30;;;4.77;;
21215;SDS011;10765;50.954;5.322;2023-07-31T02:09:55;8.73;;;5.33;;
21215;SDS011;10765;50.954;5.322;2023-07-31T02:12:22;9.43;;;5.33;;
21215;SDS011;10765;50.954;5.322;2023-07-31T02:14:49;10.83;;;4.83;;
21215;SDS011;10765;50.954;5.322;2023-07-31T02:17:17;12.00;;;6.00;;
21215;SDS011;10765;50.954;5.322;2023-07-31T02:19:44;11.03;;;5.77;;
21215;SDS011;10765;50.954;5.322;2023-07-31T02:22:10;11.13;;;5.27;;
21215;SDS011;10765;50.954;5.322;2023-07-31T02:24:37;9.13;;;5.63;;
21215;SDS011;10765;50.954;5.322;2023-07-31T02:27:05;10.03;;;5.43;;
21215;SDS011;10765;50.954;5.322;2023-07-31T02:29:32;9.90;;;5.27;;
21215;SDS011;10765;50.954;5.322;2023-07-31T02:31:59;12.77;;;5.60;;
21215;SDS011;10765;50.954;5.322;2023-07-31T02:34:27;12.70;;;5.73;;
21215;SDS011;10765;50.954;5.322;2023-07-31T02:36:54;11.53;;;6.10;;
21215;SDS011;10765;50.954;5.322;2023-07-31T02:39:21;10.93;;;5.57;;
21215;SDS011;10765;50.954;5.322;2023-07-31T02:41:47;11.87;;;5.83;;
21215;SDS011;10765;50.954;5.322;2023-07-31T02:44:14;8.13;;;5.53;;
21215;SDS011;10765;50.954;5.322;2023-07-31T02:46:41;10.07;;;5.33;;
21215;SDS011;10765;50.954;5.322;2023-07-31T02:49:08;10.43;;;5.37;;
21215;SDS011;10765;50.954;5.322;2023-07-31T02:51:36;12.80;;;5.50;;
21215;SDS011;10765;50.954;5.322;2023-07-31T02:54:03;8.97;;;5.27;;
21215;SDS011;10765;50.954;5.322;2023-07-31T02:56:30;8.90;;;5.53;;
21215;SDS011;10765;50.954;5.322;2023-07-31T02:58:57;11.10;;;6.07;;
21215;SDS011;10765;50.954;5.322;2023-07-31T03:01:24;12.27;;;5.77;;
21215;SDS011;10765;50.954;5.322;2023-07-31T03:03:51;10.13;;;5.67;;
21215;SDS011;10765;50.954;5.322;2023-07-31T03:06:18;9.37;;;5.20;;
21215;SDS011;10765;50.954;5.322;2023-07-31T03:08:46;8.97;;;5.63;;
21215;SDS011;10765;50.954;5.322;2023-07-31T03:11:13;9.27;;;5.37;;
21215;SDS011;10765;50.954;5.322;2023-07-31T03:13:40;9.13;;;5.50;;
21215;SDS011;10765;50.954;5.322;2023-07-31T03:16:07;7.77;;;4.93;;
21215;SDS011;10765;50.954;5.322;2023-07-31T03:18:34;7.93;;;5.27;;
21215;SDS011;10765;50.954;5.322;2023-07-31T03:21:01;10.23;;;5.30;;
21215;SDS011;10765;50.954;5.322;2023-07-31T03:23:27;8.40;;;5.53;;
21215;SDS011;10765;50.954;5.322;2023-07-31T03:25:56;8.20;;;5.63;;
21215;SDS011;10765;50.954;5.322;2023-07-31T03:28:23;7.63;;;5.27;;
21215;SDS011;10765;50.954;5.322;2023-07-31T03:30:50;12.07;;;5.67;;
21215;SDS011;10765;50.954;5.322;2023-07-31T03:33:17;8.47;;;5.43;;
21215;SDS011;10765;50.954;5.322;2023-07-31T03:35:44;10.30;;;5.23;;
21215;SDS011;10765;50.954;5.322;2023-07-31T03:38:11;7.07;;;5.23;;
21215;SDS011;10765;50.954;5.322;2023-07-31T03:40:38;9.10;;;5.10;;
21215;SDS011;10765;50.954;5.322;2023-07-31T03:43:07;8.03;;;5.50;;
21215;SDS011;10765;50.954;5.322;2023-07-31T03:45:34;9.60;;;5.60;;
21215;SDS011;10765;50.954;5.322;2023-07-31T03:48:00;8.37;;;5.50;;
21215;SDS011;10765;50.954;5.322;2023-07-31T03:50:27;8.50;;;5.80;;
21215;SDS011;10765;50.954;5.322;2023-07-31T03:52:54;10.37;;;5.13;;
21215;SDS011;10765;50.954;5.322;2023-07-31T03:55:21;8.80;;;5.03;;
21215;SDS011;10765;50.954;5.322;2023-07-31T03:57:48;7.13;;;4.83;;
21215;SDS011;10765;50.954;5.322;2023-07-31T04:00:16;12.03;;;4.80;;
21215;SDS011;10765;50.954;5.322;2023-07-31T04:02:45;7.67;;;5.23;;
21215;SDS011;10765;50.954;5.322;2023-07-31T04:05:12;8.80;;;4.53;;
21215;SDS011;10765;50.954;5.322;2023-07-31T04:07:41;7.77;;;5.13;;
21215;SDS011;10765;50.954;5.322;2023-07-31T04:10:08;7.80;;;5.20;;
21215;SDS011;10765;50.954;5.322;2023-07-31T04:12:36;6.80;;;4.37;;
21215;SDS011;10765;50.954;5.322;2023-07-31T04:15:03;9.63;;;5.17;;
21215;SDS011;10765;50.954;5.322;2023-07-31T04:17:31;7.40;;;4.67;;
21215;SDS011;10765;50.954;5.322;2023-07-31T04:19:58;5.37;;;4.47;;
21215;SDS011;10765;50.954;5.322;2023-07-31T04:22:25;7.10;;;4.70;;
21215;SDS011;10765;50.954;5.322;2023-07-31T04:24:52;6.30;;;4.53;;
21215;SDS011;10765;50.954;5.322;2023-07-31T04:27:19;6.50;;;4.20;;
21215;SDS011;10765;50.954;5.322;2023-07-31T04:29:46;6.83;;;4.07;;
21215;SDS011;10765;50.954;5.322;2023-07-31T04:32:13;6.30;;;4.10;;
21215;SDS011;10765;50.954;5.322;2023-07-31T04:34:43;7.23;;;4.47;;
21215;SDS011;10765;50.954;5.322;2023-07-31T04:37:09;7.43;;;4.37;;
21215;SDS011;10765;50.954;5.322;2023-07-31T04:39:36;6.70;;;3.83;;
21215;SDS011;10765;50.954;5.322;2023-07-31T04:42:03;6.70;;;4.30;;
21215;SDS011;10765;50.954;5.322;2023-07-31T04:44:30;5.97;;;4.43;;
21215;SDS011;10765;50.954;5.322;2023-07-31T04:46:57;5.50;;;4.40;;
21215;SDS011;10765;50.954;5.322;2023-07-31T04:49:24;6.07;;;4.47;;
21215;SDS011;10765;50.954;5.322;2023-07-31T04:51:52;7.50;;;4.60;;
21215;SDS011;10765;50.954;5.322;2023-07-31T04:54:19;6.10;;;4.40;;
21215;SDS011;10765;50.954;5.322;2023-07-31T04:56:46;11.80;;;5.50;;
21215;SDS011;10765;50.954;5.322;2023-07-31T04:59:13;8.10;;;5.10;;
21215;SDS011;10765;50.954;5.322;2023-07-31T05:01:40;6.63;;;5.23;;
21215;SDS011;10765;50.954;5.322;2023-07-31T05:04:08;9.17;;;5.53;;
21215;SDS011;10765;50.954;5.322;2023-07-31T05:06:34;10.50;;;5.60;;
21215;SDS011;10765;50.954;5.322;2023-07-31T05:09:03;8.33;;;5.57;;
21215;SDS011;10765;50.954;5.322;2023-07-31T05:11:29;8.77;;;5.33;;
21215;SDS011;10765;50.954;5.322;2023-07-31T05:13:56;9.77;;;5.50;;
21215;SDS011;10765;50.954;5.322;2023-07-31T05:16:23;8.27;;;5.63;;
21215;SDS011;10765;50.954;5.322;2023-07-31T05:18:50;8.90;;;5.47;;
21215;SDS011;10765;50.954;5.322;2023-07-31T05:21:17;10.27;;;5.90;;
21215;SDS011;10765;50.954;5.322;2023-07-31T05:23:44;9.83;;;5.60;;
21215;SDS011;10765;50.954;5.322;2023-07-31T05:26:14;8.33;;;5.70;;
21215;SDS011;10765;50.954;5.322;2023-07-31T05:28:41;10.63;;;5.87;;
21215;SDS011;10765;50.954;5.322;2023-07-31T05:31:08;7.93;;;5.47;;
21215;SDS011;10765;50.954;5.322;2023-07-31T05:33:35;10.27;;;5.80;;
21215;SDS011;10765;50.954;5.322;2023-07-31T05:36:02;8.07;;;5.40;;
21215;SDS011;10765;50.954;5.322;2023-07-31T05:38:29;7.03;;;5.50;;
21215;SDS011;10765;50.954;5.322;2023-07-31T05:40:59;6.90;;;5.33;;
21215;SDS011;10765;50.954;5.322;2023-07-31T05:43:27;7.83;;;5.37;;
21215;SDS011;10765;50.954;5.322;2023-07-31T05:45:54;6.80;;;5.60;;
21215;SDS011;10765;50.954;5.322;2023-07-31T05:48:24;6.17;;;4.93;;
21215;SDS011;10765;50.954;5.322;2023-07-31T05:50:50;7.80;;;5.70;;
21215;SDS011;10765;50.954;5.322;2023-07-31T05:53:17;6.97;;;5.10;;
21215;SDS011;10765;50.954;5.322;2023-07-31T05:55:44;10.53;;;5.10;;
21215;SDS011;10765;50.954;5.322;2023-07-31T05:58:11;8.30;;;5.27;;
21215;SDS011;10765;50.954;5.322;2023-07-31T06:00:39;7.07;;;4.83;;
21215;SDS011;10765;50.954;5.322;2023-07-31T06:03:07;7.67;;;5.07;;
21215;SDS011;10765;50.954;5.322;2023-07-31T06:05:36;8.17;;;5.07;;
21215;SDS011;10765;50.954;5.322;2023-07-31T06:08:06;6.30;;;5.10;;
21215;SDS011;10765;50.954;5.322;2023-07-31T06:10:32;8.57;;;5.33;;
21215;SDS011;10765;50.954;5.322;2023-07-31T06:12:59;8.57;;;5.27;;
21215;SDS011;10765;50.954;5.322;2023-07-31T06:15:26;8.93;;;5.60;;
21215;SDS011;10765;50.954;5.322;2023-07-31T06:17:55;8.80;;;5.50;;
21215;SDS011;10765;50.954;5.322;2023-07-31T06:20:22;5.80;;;5.20;;
21215;SDS011;10765;50.954;5.322;2023-07-31T06:22:49;7.17;;;4.93;;
21215;SDS011;10765;50.954;5.322;2023-07-31T06:25:16;6.50;;;4.53;;
21215;SDS011;10765;50.954;5.322;2023-07-31T06:27:43;7.47;;;4.40;;
21215;SDS011;10765;50.954;5.322;2023-07-31T06:30:10;8.67;;;4.90;;
21215;SDS011;10765;50.954;5.322;2023-07-31T06:32:38;6.53;;;5.10;;
21215;SDS011;10765;50.954;5.322;2023-07-31T06:35:07;7.67;;;4.93;;
21215;SDS011;10765;50.954;5.322;2023-07-31T06:37:34;7.97;;;5.00;;
21215;SDS011;10765;50.954;5.322;2023-07-31T06:40:01;6.80;;;4.93;;
21215;SDS011;10765;50.954;5.322;2023-07-31T06:42:30;9.33;;;5.53;;
21215;SDS011;10765;50.954;5.322;2023-07-31T06:44:57;10.13;;;5.30;;
21215;SDS011;10765;50.954;5.322;2023-07-31T06:47:24;9.87;;;5.40;;
21215;SDS011;10765;50.954;5.322;2023-07-31T06:49:51;10.27;;;5.50;;
21215;SDS011;10765;50.954;5.322;2023-07-31T06:52:19;9.40;;;5.60;;
21215;SDS011;10765;50.954;5.322;2023-07-31T06:54:57;9.43;;;5.17;;
21215;SDS011;10765;50.954;5.322;2023-07-31T06:57:27;6.73;;;4.73;;
21215;SDS011;10765;50.954;5.322;2023-07-31T06:59:54;6.20;;;4.80;;
21215;SDS011;10765;50.954;5.322;2023-07-31T07:02:21;7.27;;;5.17;;
21215;SDS011;10765;50.954;5.322;2023-07-31T07:04:48;7.97;;;4.93;;
21215;SDS011;10765;50.954;5.322;2023-07-31T07:07:16;8.90;;;5.07;;
21215;SDS011;10765;50.954;5.322;2023-07-31T07:09:45;7.90;;;4.70;;
21215;SDS011;10765;50.954;5.322;2023-07-31T07:12:11;7.33;;;5.00;;
21215;SDS011;10765;50.954;5.322;2023-07-31T07:14:38;8.13;;;5.07;;
21215;SDS011;10765;50.954;5.322;2023-07-31T07:17:05;7.83;;;4.70;;
21215;SDS011;10765;50.954;5.322;2023-07-31T07:19:32;7.90;;;4.60;;
21215;SDS011;10765;50.954;5.322;2023-07-31T07:21:59;7.67;;;5.20;;
21215;SDS011;10765;50.954;5.322;2023-07-31T07:24:27;7.10;;;4.80;;
21215;SDS011;10765;50.954;5.322;2023-07-31T07:26:55;8.60;;;4.80;;
21215;SDS011;10765;50.954;5.322;2023-07-31T07:29:22;8.00;;;4.90;;
21215;SDS011;10765;50.954;5.322;2023-07-31T07:31:51;7.47;;;4.77;;
21215;SDS011;10765;50.954;5.322;2023-07-31T07:34:18;7.40;;;5.10;;
21215;SDS011;10765;50.954;5.322;2023-07-31T07:36:45;6.87;;;4.60;;
21215;SDS011;10765;50.954;5.322;2023-07-31T07:39:12;7.03;;;4.40;;
21215;SDS011;10765;50.954;5.322;2023-07-31T07:41:39;7.47;;;4.43;;
21215;SDS011;10765;50.954;5.322;2023-07-31T07:44:07;7.53;;;4.70;;
21215;SDS011;10765;50.954;5.322;2023-07-31T07:46:34;9.20;;;4.40;;
21215;SDS011;10765;50.954;5.322;2023-07-31T07:49:01;6.93;;;4.53;;
21215;SDS011;10765;50.954;5.322;2023-07-31T07:51:28;7.03;;;4.30;;
21215;SDS011;10765;50.954;5.322;2023-07-31T07:53:56;10.27;;;5.07;;
21215;SDS011;10765;50.954;5.322;2023-07-31T07:56:23;8.53;;;4.90;;
21215;SDS011;10765;50.954;5.322;2023-07-31T07:58:52;8.77;;;4.30;;
21215;SDS011;10765;50.954;5.322;2023-07-31T08:01:20;6.57;;;4.10;;
21215;SDS011;10765;50.954;5.322;2023-07-31T08:03:47;7.30;;;4.57;;
21215;SDS011;10765;50.954;5.322;2023-07-31T08:06:14;5.67;;;4.20;;
21215;SDS011;10765;50.954;5.322;2023-07-31T08:08:41;7.93;;;4.30;;
21215;SDS011;10765;50.954;5.322;2023-07-31T08:11:08;6.60;;;3.93;;
21215;SDS011;10765;50.954;5.322;2023-07-31T08:13:35;7.07;;;3.77;;
21215;SDS011;10765;50.954;5.322;2023-07-31T08:16:03;5.30;;;3.90;;
21215;SDS011;10765;50.954;5.322;2023-07-31T08:18:31;6.63;;;4.10;;
21215;SDS011;10765;50.954;5.322;2023-07-31T08:20:58;7.53;;;4.13;;
21215;SDS011;10765;50.954;5.322;2023-07-31T08:23:28;6.60;;;4.53;;
21215;SDS011;10765;50.954;5.322;2023-07-31T08:25:55;6.03;;;3.97;;
21215;SDS011;10765;50.954;5.322;2023-07-31T08:28:22;6.37;;;3.67;;
21215;SDS011;10765;50.954;5.322;2023-07-31T08:30:49;6.57;;;4.13;;
21215;SDS011;10765;50.954;5.322;2023-07-31T08:33:16;5.47;;;4.10;;
21215;SDS011;10765;50.954;5.322;2023-07-31T08:35:44;5.83;;;3.93;;
21215;SDS011;10765;50.954;5.322;2023-07-31T08:38:11;5.63;;;4.20;;
21215;SDS011;10765;50.954;5.322;2023-07-31T08:40:38;4.53;;;3.33;;
21215;SDS011;10765;50.954;5.322;2023-07-31T08:43:05;4.93;;;3.47;;
21215;SDS011;10765;50.954;5.322;2023-07-31T08:45:33;6.23;;;3.97;;
21215;SDS011;10765;50.954;5.322;2023-07-31T08:48:00;6.53;;;4.10;;
21215;SDS011;10765;50.954;5.322;2023-07-31T08:50:27;7.20;;;4.47;;
21215;SDS011;10765;50.954;5.322;2023-07-31T08:52:56;5.57;;;4.10;;
21215;SDS011;10765;50.954;5.322;2023-07-31T08:55:23;6.00;;;3.67;;
21215;SDS011;10765;50.954;5.322;2023-07-31T08:57:51;6.00;;;3.93;;
21215;SDS011;10765;50.954;5.322;2023-07-31T09:00:18;7.53;;;4.17;;
21215;SDS011;10765;50.954;5.322;2023-07-31T09:02:52;5.43;;;3.60;;
21215;SDS011;10765;50.954;5.322;2023-07-31T09:05:23;5.03;;;3.60;;
21215;SDS011;10765;50.954;5.322;2023-07-31T09:07:53;5.10;;;3.53;;
21215;SDS011;10765;50.954;5.322;2023-07-31T09:10:23;4.40;;;3.47;;
21215;SDS011;10765;50.954;5.322;2023-07-31T09:12:50;5.67;;;3.37;;
21215;SDS011;10765;50.954;5.322;2023-07-31T09:15:18;4.77;;;3.10;;
21215;SDS011;10765;50.954;5.322;2023-07-31T09:17:46;3.87;;;3.00;;
21215;SDS011;10765;50.954;5.322;2023-07-31T09:20:13;5.77;;;3.80;;
21215;SDS011;10765;50.954;5.322;2023-07-31T09:22:41;5.70;;;3.30;;
21215;SDS011;10765;50.954;5.322;2023-07-31T09:25:16;3.87;;;2.80;;
21215;SDS011;10765;50.954;5.322;2023-07-31T09:27:47;4.83;;;2.97;;
21215;SDS011;10765;50.954;5.322;2023-07-31T09:30:15;3.73;;;2.57;;
21215;SDS011;10765;50.954;5.322;2023-07-31T09:32:43;5.63;;;2.87;;
21215;SDS011;10765;50.954;5.322;2023-07-31T09:35:13;3.47;;;2.40;;
21215;SDS011;10765;50.954;5.322;2023-07-31T09:37:48;3.37;;;2.50;;
21215;SDS011;10765;50.954;5.322;2023-07-31T09:40:26;3.17;;;2.03;;
21215;SDS011;10765;50.954;5.322;2023-07-31T09:42:55;2.83;;;2.30;;
21215;SDS011;10765;50.954;5.322;2023-07-31T09:45:23;3.57;;;2.43;;
21215;SDS011;10765;50.954;5.322;2023-07-31T09:47:50;3.70;;;2.57;;
21215;SDS011;10765;50.954;5.322;2023-07-31T09:50:19;2.83;;;2.10;;
21215;SDS011;10765;50.954;5.322;2023-07-31T09:52:46;2.77;;;2.20;;
21215;SDS011;10765;50.954;5.322;2023-07-31T09:55:13;3.40;;;2.00;;
21215;SDS011;10765;50.954;5.322;2023-07-31T09:57:42;1.97;;;1.80;;
21215;SDS011;10765;50.954;5.322;2023-07-31T10:00:11;3.03;;;1.90;;
21215;SDS011;10765;50.954;5.322;2023-07-31T10:02:39;3.17;;;2.00;;
21215;SDS011;10765;50.954;5.322;2023-07-31T10:05:07;1.93;;;1.67;;
21215;SDS011;10765;50.954;5.322;2023-07-31T10:07:36;6.83;;;5.07;;
21215;SDS011;10765;50.954;5.322;2023-07-31T10:10:06;2.40;;;1.70;;
21215;SDS011;10765;50.954;5.322;2023-07-31T10:12:34;2.97;;;2.23;;
21215;SDS011;10765;50.954;5.322;2023-07-31T10:15:04;3.73;;;2.33;;
21215;SDS011;10765;50.954;5.322;2023-07-31T10:17:32;3.47;;;2.00;;
21215;SDS011;10765;50.954;5.322;2023-07-31T10:20:01;3.53;;;2.47;;
21215;SDS011;10765;50.954;5.322;2023-07-31T10:22:30;5.00;;;2.60;;
21215;SDS011;10765;50.954;5.322;2023-07-31T10:24:57;4.20;;;2.50;;
21215;SDS011;10765;50.954;5.322;2023-07-31T10:27:25;3.20;;;2.20;;
21215;SDS011;10765;50.954;5.322;2023-07-31T10:29:53;3.50;;;2.60;;
21215;SDS011;10765;50.954;5.322;2023-07-31T10:32:23;4.00;;;2.87;;
21215;SDS011;10765;50.954;5.322;2023-07-31T10:34:51;4.40;;;3.00;;
21215;SDS011;10765;50.954;5.322;2023-07-31T10:37:25;3.50;;;2.97;;
21215;SDS011;10765;50.954;5.322;2023-07-31T10:39:56;4.87;;;3.00;;
21215;SDS011;10765;50.954;5.322;2023-07-31T10:42:28;3.83;;;2.80;;
21215;SDS011;10765;50.954;5.322;2023-07-31T10:44:59;5.50;;;3.20;;
21215;SDS011;10765;50.954;5.322;2023-07-31T10:47:29;4.03;;;2.80;;
21215;SDS011;10765;50.954;5.322;2023-07-31T10:50:10;5.77;;;3.60;;
21215;SDS011;10765;50.954;5.322;2023-07-31T10:52:39;5.57;;;4.00;;
21215;SDS011;10765;50.954;5.322;2023-07-31T10:55:13;5.10;;;3.40;;
21215;SDS011;10765;50.954;5.322;2023-07-31T10:57:57;4.83;;;3.50;;
21215;SDS011;10765;50.954;5.322;2023-07-31T11:00:31;5.47;;;3.77;;
21215;SDS011;10765;50.954;5.322;2023-07-31T11:03:01;9.90;;;6.80;;
21215;SDS011;10765;50.954;5.322;2023-07-31T11:05:44;5.27;;;3.77;;
21215;SDS011;10765;50.954;5.322;2023-07-31T11:08:12;6.33;;;4.20;;
21215;SDS011;10765;50.954;5.322;2023-07-31T11:10:40;5.90;;;3.93;;
21215;SDS011;10765;50.954;5.322;2023-07-31T11:13:08;5.03;;;4.23;;
21215;SDS011;10765;50.954;5.322;2023-07-31T11:15:34;5.17;;;3.60;;
21215;SDS011;10765;50.954;5.322;2023-07-31T11:18:03;4.70;;;4.17;;
21215;SDS011;10765;50.954;5.322;2023-07-31T11:20:31;5.70;;;4.07;;
21215;SDS011;10765;50.954;5.322;2023-07-31T11:22:59;5.70;;;4.23;;
21215;SDS011;10765;50.954;5.322;2023-07-31T11:25:28;5.57;;;3.90;;
21215;SDS011;10765;50.954;5.322;2023-07-31T11:27:56;6.90;;;4.40;;
21215;SDS011;10765;50.954;5.322;2023-07-31T11:30:23;5.90;;;4.10;;
21215;SDS011;10765;50.954;5.322;2023-07-31T11:32:50;6.37;;;4.10;;
21215;SDS011;10765;50.954;5.322;2023-07-31T11:35:18;8.17;;;4.37;;
21215;SDS011;10765;50.954;5.322;2023-07-31T11:37:45;6.40;;;4.10;;
21215;SDS011;10765;50.954;5.322;2023-07-31T11:40:13;7.27;;;4.60;;
21215;SDS011;10765;50.954;5.322;2023-07-31T11:42:41;7.03;;;4.43;;
21215;SDS011;10765;50.954;5.322;2023-07-31T11:45:08;5.03;;;4.00;;
21215;SDS011;10765;50.954;5.322;2023-07-31T11:47:36;5.43;;;3.87;;
21215;SDS011;10765;50.954;5.322;2023-07-31T11:50:04;5.53;;;3.93;;
21215;SDS011;10765;50.954;5.322;2023-07-31T11:52:35;6.50;;;4.17;;
21215;SDS011;10765;50.954;5.322;2023-07-31T11:55:06;5.60;;;4.00;;
21215;SDS011;10765;50.954;5.322;2023-07-31T11:57:35;6.33;;;3.83;;
21215;SDS011;10765;50.954;5.322;2023-07-31T12:00:03;5.87;;;3.87;;
21215;SDS011;10765;50.954;5.322;2023-07-31T12:02:32;6.80;;;4.37;;
21215;SDS011;10765;50.954;5.322;2023-07-31T12:04:59;5.97;;;3.73;;
21215;SDS011;10765;50.954;5.322;2023-07-31T12:07:26;6.67;;;4.07;;
21215;SDS011;10765;50.954;5.322;2023-07-31T12:09:54;6.17;;;4.10;;
21215;SDS011;10765;50.954;5.322;2023-07-31T12:12:22;6.77;;;3.90;;
21215;SDS011;10765;50.954;5.322;2023-07-31T12:14:49;5.43;;;3.70;;
21215;SDS011;10765;50.954;5.322;2023-07-31T12:17:17;5.03;;;3.63;;
21215;SDS011;10765;50.954;5.322;2023-07-31T12:19:45;6.03;;;4.20;;
21215;SDS011;10765;50.954;5.322;2023-07-31T12:22:12;5.23;;;4.10;;
21215;SDS011;10765;50.954;5.322;2023-07-31T12:24:40;5.47;;;3.77;;
21215;SDS011;10765;50.954;5.322;2023-07-31T12:27:11;5.27;;;3.87;;
21215;SDS011;10765;50.954;5.322;2023-07-31T12:29:41;7.00;;;3.93;;
21215;SDS011;10765;50.954;5.322;2023-07-31T12:32:21;5.97;;;4.00;;
21215;SDS011;10765;50.954;5.322;2023-07-31T12:34:50;7.00;;;4.47;;
21215;SDS011;10765;50.954;5.322;2023-07-31T12:37:17;6.83;;;4.27;;
21215;SDS011;10765;50.954;5.322;2023-07-31T12:39:45;5.83;;;3.73;;
21215;SDS011;10765;50.954;5.322;2023-07-31T12:42:13;5.20;;;3.80;;
21215;SDS011;10765;50.954;5.322;2023-07-31T12:44:43;5.07;;;3.63;;
21215;SDS011;10765;50.954;5.322;2023-07-31T12:47:10;5.10;;;3.63;;
21215;SDS011;10765;50.954;5.322;2023-07-31T12:49:36;5.77;;;3.33;;
21215;SDS011;10765;50.954;5.322;2023-07-31T12:52:04;6.10;;;3.70;;
21215;SDS011;10765;50.954;5.322;2023-07-31T12:54:31;6.30;;;3.83;;
21215;SDS011;10765;50.954;5.322;2023-07-31T12:56:58;5.57;;;3.37;;
21215;SDS011;10765;50.954;5.322;2023-07-31T12:59:26;4.70;;;3.60;;
21215;SDS011;10765;50.954;5.322;2023-07-31T13:01:53;6.37;;;3.90;;
21215;SDS011;10765;50.954;5.322;2023-07-31T13:04:20;5.27;;;3.93;;
21215;SDS011;10765;50.954;5.322;2023-07-31T13:06:47;5.83;;;3.80;;
21215;SDS011;10765;50.954;5.322;2023-07-31T13:09:14;7.13;;;4.53;;
21215;SDS011;10765;50.954;5.322;2023-07-31T13:11:42;5.40;;;4.00;;
21215;SDS011;10765;50.954;5.322;2023-07-31T13:14:09;7.37;;;4.40;;
21215;SDS011;10765;50.954;5.322;2023-07-31T13:16:38;4.87;;;4.20;;
21215;SDS011;10765;50.954;5.322;2023-07-31T13:19:05;6.63;;;4.33;;
21215;SDS011;10765;50.954;5.322;2023-07-31T13:21:32;5.30;;;4.33;;
21215;SDS011;10765;50.954;5.322;2023-07-31T13:24:01;8.27;;;4.30;;
21215;SDS011;10765;50.954;5.322;2023-07-31T13:26:29;8.50;;;4.87;;
21215;SDS011;10765;50.954;5.322;2023-07-31T13:28:56;8.00;;;4.50;;
21215;SDS011;10765;50.954;5.322;2023-07-31T13:31:23;6.83;;;4.60;;
21215;SDS011;10765;50.954;5.322;2023-07-31T13:33:51;7.07;;;4.30;;
21215;SDS011;10765;50.954;5.322;2023-07-31T13:36:18;7.07;;;4.50;;
21215;SDS011;10765;50.954;5.322;2023-07-31T13:38:45;6.73;;;4.20;;
21215;SDS011;10765;50.954;5.322;2023-07-31T13:41:12;8.50;;;4.47;;
21215;SDS011;10765;50.954;5.322;2023-07-31T13:43:39;6.30;;;4.40;;
21215;SDS011;10765;50.954;5.322;2023-07-31T13:46:06;6.63;;;4.67;;
21215;SDS011;10765;50.954;5.322;2023-07-31T13:48:35;6.93;;;4.60;;
21215;SDS011;10765;50.954;5.322;2023-07-31T13:51:04;6.93;;;4.60;;
21215;SDS011;10765;50.954;5.322;2023-07-31T13:53:31;5.50;;;4.37;;
21215;SDS011;10765;50.954;5.322;2023-07-31T13:55:57;6.90;;;4.57;;
21215;SDS011;10765;50.954;5.322;2023-07-31T13:58:24;7.97;;;4.80;;
21215;SDS011;10765;50.954;5.322;2023-07-31T14:00:51;7.33;;;4.27;;
21215;SDS011;10765;50.954;5.322;2023-07-31T14:03:18;7.40;;;4.03;;
21215;SDS011;10765;50.954;5.322;2023-07-31T14:05:45;7.27;;;4.23;;
21215;SDS011;10765;50.954;5.322;2023-07-31T14:08:13;5.90;;;4.80;;
21215;SDS011;10765;50.954;5.322;2023-07-31T14:10:40;5.17;;;4.50;;
21215;SDS011;10765;50.954;5.322;2023-07-31T14:13:07;9.40;;;4.37;;
21215;SDS011;10765;50.954;5.322;2023-07-31T14:15:34;6.83;;;4.20;;
21215;SDS011;10765;50.954;5.322;2023-07-31T14:18:01;8.83;;;4.23;;
21215;SDS011;10765;50.954;5.322;2023-07-31T14:20:28;5.57;;;4.20;;
21215;SDS011;10765;50.954;5.322;2023-07-31T14:22:56;5.97;;;4.13;;
21215;SDS011;10765;50.954;5.322;2023-07-31T14:25:25;5.63;;;4.53;;
21215;SDS011;10765;50.954;5.322;2023-07-31T14:27:52;7.37;;;4.70;;
21215;SDS011;10765;50.954;5.322;2023-07-31T14:30:19;7.03;;;4.13;;
21215;SDS011;10765;50.954;5.322;2023-07-31T14:32:46;7.70;;;4.47;;
21215;SDS011;10765;50.954;5.322;2023-07-31T14:35:13;5.57;;;3.93;;
21215;SDS011;10765;50.954;5.322;2023-07-31T14:37:40;4.60;;;3.80;;
21215;SDS011;10765;50.954;5.322;2023-07-31T14:40:09;5.70;;;4.00;;
21215;SDS011;10765;50.954;5.322;2023-07-31T14:42:38;8.60;;;4.80;;
21215;SDS011;10765;50.954;5.322;2023-07-31T14:45:06;7.43;;;4.63;;
21215;SDS011;10765;50.954;5.322;2023-07-31T14:47:35;6.47;;;4.37;;
21215;SDS011;10765;50.954;5.322;2023-07-31T14:50:02;6.13;;;4.10;;